sensor_id;sensor_type;location;lat;lon;timestamp;temperature;humidity
16158;DHT22;8184;60.256;18.694;2023-05-16T00:00:36;8.80;99.90
16158;DHT22;8184;60.256;18.694;2023-05-16T00:03:04;8.80;99.90
16158;DHT22;8184;60.256;18.694;2023-05-16T00:05:33;8.70;99.90
16158;DHT22;8184;60.256;18.694;2023-05-16T00:08:04;8.80;99.90
16158;DHT22;8184;60.256;18.694;2023-05-16T00:10:32;8.90;99.90
16158;DHT22;8184;60.256;18.694;2023-05-16T00:13:00;8.90;99.90
16158;DHT22;8184;60.256;18.694;2023-05-16T00:15:30;8.90;99.90
16158;DHT22;8184;60.256;18.694;2023-05-16T00:18:01;8.80;99.90
16158;DHT22;8184;60.256;18.694;2023-05-16T00:20:29;8.90;99.90
16158;DHT22;8184;60.256;18.694;2023-05-16T00:22:57;8.80;99.90
16158;DHT22;8184;60.256;18.694;2023-05-16T00:25:27;8.90;99.90
16158;DHT22;8184;60.256;18.694;2023-05-16T00:27:55;8.80;99.90
16158;DHT22;8184;60.256;18.694;2023-05-16T00:30:24;8.90;99.90
16158;DHT22;8184;60.256;18.694;2023-05-16T00:32:54;8.90;99.90
16158;DHT22;8184;60.256;18.694;2023-05-16T00:35:22;8.90;99.90
16158;DHT22;8184;60.256;18.694;2023-05-16T00:37:50;8.90;99.90
16158;DHT22;8184;60.256;18.694;2023-05-16T00:40:19;9.00;99.90
16158;DHT22;8184;60.256;18.694;2023-05-16T00:42:47;9.00;99.90
16158;DHT22;8184;60.256;18.694;2023-05-16T00:45:15;9.00;99.90
16158;DHT22;8184;60.256;18.694;2023-05-16T00:47:43;9.00;99.90
16158;DHT22;8184;60.256;18.694;2023-05-16T00:50:13;8.90;99.90
16158;DHT22;8184;60.256;18.694;2023-05-16T00:52:43;9.00;99.90
16158;DHT22;8184;60.256;18.694;2023-05-16T00:55:11;9.00;99.90
16158;DHT22;8184;60.256;18.694;2023-05-16T00:57:40;9.00;99.90
16158;DHT22;8184;60.256;18.694;2023-05-16T01:00:08;8.80;99.90
16158;DHT22;8184;60.256;18.694;2023-05-16T01:02:37;8.90;99.90
16158;DHT22;8184;60.256;18.694;2023-05-16T01:05:08;9.00;99.90
16158;DHT22;8184;60.256;18.694;2023-05-16T01:07:38;9.00;99.90
16158;DHT22;8184;60.256;18.694;2023-05-16T01:10:07;8.80;99.90
16158;DHT22;8184;60.256;18.694;2023-05-16T01:12:36;8.90;99.90
16158;DHT22;8184;60.256;18.694;2023-05-16T01:15:06;9.00;99.90
16158;DHT22;8184;60.256;18.694;2023-05-16T01:17:42;9.00;99.90
16158;DHT22;8184;60.256;18.694;2023-05-16T01:20:14;8.90;99.90
16158;DHT22;8184;60.256;18.694;2023-05-16T01:22:51;9.00;99.90
16158;DHT22;8184;60.256;18.694;2023-05-16T01:25:26;9.10;99.90
16158;DHT22;8184;60.256;18.694;2023-05-16T01:28:01;9.10;99.90
16158;DHT22;8184;60.256;18.694;2023-05-16T01:30:31;9.00;99.90
16158;DHT22;8184;60.256;18.694;2023-05-16T01:33:00;9.00;99.90
16158;DHT22;8184;60.256;18.694;2023-05-16T01:35:29;9.40;99.90
16158;DHT22;8184;60.256;18.694;2023-05-16T01:37:58;9.80;99.90
16158;DHT22;8184;60.256;18.694;2023-05-16T01:40:29;9.60;99.90
16158;DHT22;8184;60.256;18.694;2023-05-16T01:43:06;9.40;99.90
16158;DHT22;8184;60.256;18.694;2023-05-16T01:45:36;9.30;99.90
16158;DHT22;8184;60.256;18.694;2023-05-16T01:48:07;9.60;99.90
16158;DHT22;8184;60.256;18.694;2023-05-16T01:50:38;9.30;99.90
16158;DHT22;8184;60.256;18.694;2023-05-16T01:53:11;9.20;99.90
16158;DHT22;8184;60.256;18.694;2023-05-16T01:55:42;9.00;99.90
16158;DHT22;8184;60.256;18.694;2023-05-16T01:58:13;9.00;99.90
16158;DHT22;8184;60.256;18.694;2023-05-16T02:00:42;8.90;99.90
16158;DHT22;8184;60.256;18.694;2023-05-16T02:03:11;8.90;99.90
16158;DHT22;8184;60.256;18.694;2023-05-16T02:05:40;8.80;99.90
16158;DHT22;8184;60.256;18.694;2023-05-16T02:08:08;8.70;99.90
16158;DHT22;8184;60.256;18.694;2023-05-16T02:10:36;8.70;99.90
16158;DHT22;8184;60.256;18.694;2023-05-16T02:13:05;8.70;99.90
16158;DHT22;8184;60.256;18.694;2023-05-16T02:15:35;8.70;99.90
16158;DHT22;8184;60.256;18.694;2023-05-16T02:18:03;8.70;99.90
16158;DHT22;8184;60.256;18.694;2023-05-16T02:20:32;8.70;99.90
16158;DHT22;8184;60.256;18.694;2023-05-16T02:23:00;8.60;99.90
16158;DHT22;8184;60.256;18.694;2023-05-16T02:25:29;8.60;99.90
16158;DHT22;8184;60.256;18.694;2023-05-16T02:27:57;8.60;99.90
16158;DHT22;8184;60.256;18.694;2023-05-16T02:30:25;8.60;99.90
16158;DHT22;8184;60.256;18.694;2023-05-16T02:32:55;8.60;99.90
16158;DHT22;8184;60.256;18.694;2023-05-16T02:35:23;8.40;99.90
16158;DHT22;8184;60.256;18.694;2023-05-16T02:37:52;8.50;99.90
16158;DHT22;8184;60.256;18.694;2023-05-16T02:40:21;8.60;99.90
16158;DHT22;8184;60.256;18.694;2023-05-16T02:42:49;8.50;99.90
16158;DHT22;8184;60.256;18.694;2023-05-16T02:45:17;8.60;99.90
16158;DHT22;8184;60.256;18.694;2023-05-16T02:47:46;8.80;99.90
16158;DHT22;8184;60.256;18.694;2023-05-16T02:50:15;8.80;99.90
16158;DHT22;8184;60.256;18.694;2023-05-16T02:52:43;8.80;99.90
16158;DHT22;8184;60.256;18.694;2023-05-16T02:55:13;8.70;99.90
16158;DHT22;8184;60.256;18.694;2023-05-16T02:57:48;8.70;99.90
16158;DHT22;8184;60.256;18.694;2023-05-16T03:00:16;8.80;99.90
16158;DHT22;8184;60.256;18.694;2023-05-16T03:02:45;8.90;99.90
16158;DHT22;8184;60.256;18.694;2023-05-16T03:05:14;9.10;99.90
16158;DHT22;8184;60.256;18.694;2023-05-16T03:07:44;9.10;99.90
16158;DHT22;8184;60.256;18.694;2023-05-16T03:12:40;9.20;99.90
16158;DHT22;8184;60.256;18.694;2023-05-16T03:15:09;9.20;99.90
16158;DHT22;8184;60.256;18.694;2023-05-16T03:17:37;9.30;99.90
16158;DHT22;8184;60.256;18.694;2023-05-16T03:20:06;9.40;99.90
16158;DHT22;8184;60.256;18.694;2023-05-16T03:22:35;9.50;99.90
16158;DHT22;8184;60.256;18.694;2023-05-16T03:25:06;9.60;99.90
16158;DHT22;8184;60.256;18.694;2023-05-16T03:27:34;9.70;99.90
16158;DHT22;8184;60.256;18.694;2023-05-16T03:30:02;9.70;99.90
16158;DHT22;8184;60.256;18.694;2023-05-16T03:35:02;9.70;99.90
16158;DHT22;8184;60.256;18.694;2023-05-16T03:37:30;9.70;99.90
16158;DHT22;8184;60.256;18.694;2023-05-16T03:39:58;9.80;99.90
16158;DHT22;8184;60.256;18.694;2023-05-16T03:42:28;9.80;99.90
16158;DHT22;8184;60.256;18.694;2023-05-16T03:44:57;9.90;99.90
16158;DHT22;8184;60.256;18.694;2023-05-16T03:47:25;9.80;99.90
16158;DHT22;8184;60.256;18.694;2023-05-16T03:49:56;9.80;99.90
16158;DHT22;8184;60.256;18.694;2023-05-16T03:52:25;9.80;99.90
16158;DHT22;8184;60.256;18.694;2023-05-16T03:54:53;9.80;99.90
16158;DHT22;8184;60.256;18.694;2023-05-16T03:57:21;9.80;99.90
16158;DHT22;8184;60.256;18.694;2023-05-16T03:59:51;9.90;99.90
16158;DHT22;8184;60.256;18.694;2023-05-16T04:02:19;9.80;99.90
16158;DHT22;8184;60.256;18.694;2023-05-16T04:04:48;9.90;99.90
16158;DHT22;8184;60.256;18.694;2023-05-16T04:07:16;10.00;99.90
16158;DHT22;8184;60.256;18.694;2023-05-16T04:09:45;10.00;99.90
16158;DHT22;8184;60.256;18.694;2023-05-16T04:12:14;9.90;99.90
16158;DHT22;8184;60.256;18.694;2023-05-16T04:14:42;9.90;99.90
16158;DHT22;8184;60.256;18.694;2023-05-16T04:17:13;9.90;99.90
16158;DHT22;8184;60.256;18.694;2023-05-16T04:19:41;9.90;99.90
16158;DHT22;8184;60.256;18.694;2023-05-16T04:22:13;9.90;99.90
16158;DHT22;8184;60.256;18.694;2023-05-16T04:24:41;9.90;99.90
16158;DHT22;8184;60.256;18.694;2023-05-16T04:27:09;9.90;99.90
16158;DHT22;8184;60.256;18.694;2023-05-16T04:29:38;9.80;99.90
16158;DHT22;8184;60.256;18.694;2023-05-16T04:32:06;9.90;99.90
16158;DHT22;8184;60.256;18.694;2023-05-16T04:34:36;9.90;99.90
16158;DHT22;8184;60.256;18.694;2023-05-16T04:37:06;9.90;99.90
16158;DHT22;8184;60.256;18.694;2023-05-16T04:39:35;10.00;99.90
16158;DHT22;8184;60.256;18.694;2023-05-16T04:42:03;10.00;99.90
16158;DHT22;8184;60.256;18.694;2023-05-16T04:44:32;10.00;99.90
16158;DHT22;8184;60.256;18.694;2023-05-16T04:47:00;9.90;99.90
16158;DHT22;8184;60.256;18.694;2023-05-16T04:49:28;9.90;99.90
16158;DHT22;8184;60.256;18.694;2023-05-16T04:51:58;9.70;99.90
16158;DHT22;8184;60.256;18.694;2023-05-16T04:54:26;9.70;99.90
16158;DHT22;8184;60.256;18.694;2023-05-16T04:56:55;9.70;99.90
16158;DHT22;8184;60.256;18.694;2023-05-16T04:59:23;9.80;99.90
16158;DHT22;8184;60.256;18.694;2023-05-16T05:01:52;9.90;99.90
16158;DHT22;8184;60.256;18.694;2023-05-16T05:04:20;9.90;99.90
16158;DHT22;8184;60.256;18.694;2023-05-16T05:06:48;9.90;99.90
16158;DHT22;8184;60.256;18.694;2023-05-16T05:09:18;10.00;99.90
16158;DHT22;8184;60.256;18.694;2023-05-16T05:11:49;10.00;99.90
16158;DHT22;8184;60.256;18.694;2023-05-16T05:14:17;10.10;99.90
16158;DHT22;8184;60.256;18.694;2023-05-16T05:16:46;10.20;99.90
16158;DHT22;8184;60.256;18.694;2023-05-16T05:19:15;10.30;99.90
16158;DHT22;8184;60.256;18.694;2023-05-16T05:21:43;10.50;99.90
16158;DHT22;8184;60.256;18.694;2023-05-16T05:24:11;10.50;99.90
16158;DHT22;8184;60.256;18.694;2023-05-16T05:26:41;10.60;99.90
16158;DHT22;8184;60.256;18.694;2023-05-16T05:29:10;10.80;99.90
16158;DHT22;8184;60.256;18.694;2023-05-16T05:31:38;10.70;99.90
16158;DHT22;8184;60.256;18.694;2023-05-16T05:34:06;10.70;99.90
16158;DHT22;8184;60.256;18.694;2023-05-16T05:36:35;10.70;99.90
16158;DHT22;8184;60.256;18.694;2023-05-16T05:39:03;10.70;99.90
16158;DHT22;8184;60.256;18.694;2023-05-16T05:41:32;10.80;99.90
16158;DHT22;8184;60.256;18.694;2023-05-16T05:44:01;10.70;99.90
16158;DHT22;8184;60.256;18.694;2023-05-16T05:46:30;10.80;99.90
16158;DHT22;8184;60.256;18.694;2023-05-16T05:48:59;10.80;99.90
16158;DHT22;8184;60.256;18.694;2023-05-16T05:51:27;10.70;99.90
16158;DHT22;8184;60.256;18.694;2023-05-16T05:53:55;10.70;99.90
16158;DHT22;8184;60.256;18.694;2023-05-16T05:56:24;10.80;99.90
16158;DHT22;8184;60.256;18.694;2023-05-16T05:58:52;10.70;99.90
16158;DHT22;8184;60.256;18.694;2023-05-16T06:01:22;10.90;99.90
16158;DHT22;8184;60.256;18.694;2023-05-16T06:03:50;10.90;99.90
16158;DHT22;8184;60.256;18.694;2023-05-16T06:06:18;10.90;99.90
16158;DHT22;8184;60.256;18.694;2023-05-16T06:08:47;11.00;99.90
16158;DHT22;8184;60.256;18.694;2023-05-16T06:11:15;11.10;99.90
16158;DHT22;8184;60.256;18.694;2023-05-16T06:13:43;11.20;99.90
16158;DHT22;8184;60.256;18.694;2023-05-16T06:16:11;11.20;99.90
16158;DHT22;8184;60.256;18.694;2023-05-16T06:18:41;11.20;99.90
16158;DHT22;8184;60.256;18.694;2023-05-16T06:21:09;11.20;99.90
16158;DHT22;8184;60.256;18.694;2023-05-16T06:23:38;11.30;99.90
16158;DHT22;8184;60.256;18.694;2023-05-16T06:26:06;11.30;99.90
16158;DHT22;8184;60.256;18.694;2023-05-16T06:28:35;11.20;99.90
16158;DHT22;8184;60.256;18.694;2023-05-16T06:31:03;11.20;99.90
16158;DHT22;8184;60.256;18.694;2023-05-16T06:33:35;11.30;99.90
16158;DHT22;8184;60.256;18.694;2023-05-16T06:36:05;11.20;99.90
16158;DHT22;8184;60.256;18.694;2023-05-16T06:38:34;11.20;99.90
16158;DHT22;8184;60.256;18.694;2023-05-16T06:41:02;11.20;99.90
16158;DHT22;8184;60.256;18.694;2023-05-16T06:43:30;11.20;99.90
16158;DHT22;8184;60.256;18.694;2023-05-16T06:45:58;11.30;99.90
16158;DHT22;8184;60.256;18.694;2023-05-16T06:48:27;11.40;99.90
16158;DHT22;8184;60.256;18.694;2023-05-16T06:50:56;11.40;99.90
16158;DHT22;8184;60.256;18.694;2023-05-16T06:53:25;11.40;99.90
16158;DHT22;8184;60.256;18.694;2023-05-16T06:55:54;11.40;99.90
16158;DHT22;8184;60.256;18.694;2023-05-16T06:58:23;11.40;99.90
16158;DHT22;8184;60.256;18.694;2023-05-16T07:00:51;11.30;99.90
16158;DHT22;8184;60.256;18.694;2023-05-16T07:03:19;11.30;99.90
16158;DHT22;8184;60.256;18.694;2023-05-16T07:05:48;11.40;99.90
16158;DHT22;8184;60.256;18.694;2023-05-16T07:08:18;11.40;99.90
16158;DHT22;8184;60.256;18.694;2023-05-16T07:10:48;11.30;99.90
16158;DHT22;8184;60.256;18.694;2023-05-16T07:13:16;11.40;99.90
16158;DHT22;8184;60.256;18.694;2023-05-16T07:15:45;11.40;99.90
16158;DHT22;8184;60.256;18.694;2023-05-16T07:18:13;11.40;99.90
16158;DHT22;8184;60.256;18.694;2023-05-16T07:20:41;11.40;99.90
16158;DHT22;8184;60.256;18.694;2023-05-16T07:23:10;11.50;99.90
16158;DHT22;8184;60.256;18.694;2023-05-16T07:25:38;11.50;99.90
16158;DHT22;8184;60.256;18.694;2023-05-16T07:28:08;11.50;99.90
16158;DHT22;8184;60.256;18.694;2023-05-16T07:30:37;11.50;99.90
16158;DHT22;8184;60.256;18.694;2023-05-16T07:33:06;11.60;99.90
16158;DHT22;8184;60.256;18.694;2023-05-16T07:35:34;11.70;99.90
16158;DHT22;8184;60.256;18.694;2023-05-16T07:38:05;11.60;99.90
16158;DHT22;8184;60.256;18.694;2023-05-16T07:40:34;11.50;99.90
16158;DHT22;8184;60.256;18.694;2023-05-16T07:43:04;11.70;99.90
16158;DHT22;8184;60.256;18.694;2023-05-16T07:45:34;11.60;99.90
16158;DHT22;8184;60.256;18.694;2023-05-16T07:48:02;11.60;99.90
16158;DHT22;8184;60.256;18.694;2023-05-16T07:50:31;11.60;99.90
16158;DHT22;8184;60.256;18.694;2023-05-16T07:52:59;11.60;99.90
16158;DHT22;8184;60.256;18.694;2023-05-16T07:55:27;11.50;99.90
16158;DHT22;8184;60.256;18.694;2023-05-16T07:57:56;11.40;99.90
16158;DHT22;8184;60.256;18.694;2023-05-16T08:00:24;11.30;99.90
16158;DHT22;8184;60.256;18.694;2023-05-16T08:02:57;11.40;99.90
16158;DHT22;8184;60.256;18.694;2023-05-16T08:05:26;11.40;99.90
16158;DHT22;8184;60.256;18.694;2023-05-16T08:07:55;11.40;99.90
16158;DHT22;8184;60.256;18.694;2023-05-16T08:10:23;11.60;99.90
16158;DHT22;8184;60.256;18.694;2023-05-16T08:12:51;11.60;99.90
16158;DHT22;8184;60.256;18.694;2023-05-16T08:15:20;11.60;99.90
16158;DHT22;8184;60.256;18.694;2023-05-16T08:17:48;11.60;99.90
16158;DHT22;8184;60.256;18.694;2023-05-16T08:20:18;11.60;99.90
16158;DHT22;8184;60.256;18.694;2023-05-16T08:22:46;11.50;99.90
16158;DHT22;8184;60.256;18.694;2023-05-16T08:25:20;11.50;99.90
16158;DHT22;8184;60.256;18.694;2023-05-16T08:27:48;11.40;99.90
16158;DHT22;8184;60.256;18.694;2023-05-16T08:30:17;11.30;99.90
16158;DHT22;8184;60.256;18.694;2023-05-16T08:32:48;11.40;99.90
16158;DHT22;8184;60.256;18.694;2023-05-16T08:35:16;11.60;99.90
16158;DHT22;8184;60.256;18.694;2023-05-16T08:37:46;11.40;99.90
16158;DHT22;8184;60.256;18.694;2023-05-16T08:40:14;11.40;99.90
16158;DHT22;8184;60.256;18.694;2023-05-16T08:42:43;11.20;99.90
16158;DHT22;8184;60.256;18.694;2023-05-16T08:45:11;11.40;99.90
16158;DHT22;8184;60.256;18.694;2023-05-16T08:47:40;11.60;99.90
16158;DHT22;8184;60.256;18.694;2023-05-16T08:50:09;11.90;99.90
16158;DHT22;8184;60.256;18.694;2023-05-16T08:52:38;12.10;99.90
16158;DHT22;8184;60.256;18.694;2023-05-16T08:55:10;12.10;99.90
16158;DHT22;8184;60.256;18.694;2023-05-16T08:57:38;12.10;99.90
16158;DHT22;8184;60.256;18.694;2023-05-16T09:00:08;12.10;99.90
16158;DHT22;8184;60.256;18.694;2023-05-16T09:02:39;12.10;99.90
16158;DHT22;8184;60.256;18.694;2023-05-16T09:05:10;12.00;99.90
16158;DHT22;8184;60.256;18.694;2023-05-16T09:07:39;12.00;99.90
16158;DHT22;8184;60.256;18.694;2023-05-16T09:10:10;11.70;99.90
16158;DHT22;8184;60.256;18.694;2023-05-16T09:12:39;11.60;99.90
16158;DHT22;8184;60.256;18.694;2023-05-16T09:15:09;11.50;99.90
16158;DHT22;8184;60.256;18.694;2023-05-16T09:17:39;11.70;99.90
16158;DHT22;8184;60.256;18.694;2023-05-16T09:20:11;11.80;99.90
16158;DHT22;8184;60.256;18.694;2023-05-16T09:22:39;11.90;99.90
16158;DHT22;8184;60.256;18.694;2023-05-16T09:25:18;11.90;99.90
16158;DHT22;8184;60.256;18.694;2023-05-16T09:27:57;11.90;99.90
16158;DHT22;8184;60.256;18.694;2023-05-16T09:30:28;11.90;99.90
16158;DHT22;8184;60.256;18.694;2023-05-16T09:32:57;11.80;99.90
16158;DHT22;8184;60.256;18.694;2023-05-16T09:35:26;11.70;99.90
16158;DHT22;8184;60.256;18.694;2023-05-16T09:37:57;11.60;99.90
16158;DHT22;8184;60.256;18.694;2023-05-16T09:40:27;11.70;99.90
16158;DHT22;8184;60.256;18.694;2023-05-16T09:43:01;11.50;99.90
16158;DHT22;8184;60.256;18.694;2023-05-16T09:45:29;11.50;99.90
16158;DHT22;8184;60.256;18.694;2023-05-16T09:48:00;11.20;99.90
16158;DHT22;8184;60.256;18.694;2023-05-16T09:50:31;11.20;99.90
16158;DHT22;8184;60.256;18.694;2023-05-16T09:53:00;11.20;99.90
16158;DHT22;8184;60.256;18.694;2023-05-16T09:55:29;11.10;99.90
16158;DHT22;8184;60.256;18.694;2023-05-16T09:57:58;11.10;99.90
16158;DHT22;8184;60.256;18.694;2023-05-16T10:00:29;11.10;99.90
16158;DHT22;8184;60.256;18.694;2023-05-16T10:02:58;11.20;99.90
16158;DHT22;8184;60.256;18.694;2023-05-16T10:05:31;11.30;99.90
16158;DHT22;8184;60.256;18.694;2023-05-16T10:07:59;11.50;99.90
16158;DHT22;8184;60.256;18.694;2023-05-16T10:10:30;11.60;99.90
16158;DHT22;8184;60.256;18.694;2023-05-16T10:13:00;11.50;99.90
16158;DHT22;8184;60.256;18.694;2023-05-16T10:15:29;11.50;99.90
16158;DHT22;8184;60.256;18.694;2023-05-16T10:17:57;11.30;99.90
16158;DHT22;8184;60.256;18.694;2023-05-16T10:20:27;11.30;99.90
16158;DHT22;8184;60.256;18.694;2023-05-16T10:22:56;11.30;99.90
16158;DHT22;8184;60.256;18.694;2023-05-16T10:25:30;11.50;99.90
16158;DHT22;8184;60.256;18.694;2023-05-16T10:28:00;11.40;99.90
16158;DHT22;8184;60.256;18.694;2023-05-16T10:30:30;11.40;99.90
16158;DHT22;8184;60.256;18.694;2023-05-16T10:32:59;11.70;99.90
16158;DHT22;8184;60.256;18.694;2023-05-16T10:35:28;11.90;99.90
16158;DHT22;8184;60.256;18.694;2023-05-16T10:37:57;11.70;99.90
16158;DHT22;8184;60.256;18.694;2023-05-16T10:40:26;12.00;99.90
16158;DHT22;8184;60.256;18.694;2023-05-16T10:42:55;12.10;99.90
16158;DHT22;8184;60.256;18.694;2023-05-16T10:45:25;12.20;99.90
16158;DHT22;8184;60.256;18.694;2023-05-16T10:47:55;12.20;99.90
16158;DHT22;8184;60.256;18.694;2023-05-16T10:50:33;12.10;99.90
16158;DHT22;8184;60.256;18.694;2023-05-16T10:53:14;12.20;99.90
16158;DHT22;8184;60.256;18.694;2023-05-16T10:55:50;12.00;99.90
16158;DHT22;8184;60.256;18.694;2023-05-16T10:58:45;11.90;99.90
16158;DHT22;8184;60.256;18.694;2023-05-16T11:01:16;12.10;99.90
16158;DHT22;8184;60.256;18.694;2023-05-16T11:04:01;12.00;99.90
16158;DHT22;8184;60.256;18.694;2023-05-16T11:06:30;12.20;99.90
16158;DHT22;8184;60.256;18.694;2023-05-16T11:09:06;11.90;99.90
16158;DHT22;8184;60.256;18.694;2023-05-16T11:11:39;11.70;99.90
16158;DHT22;8184;60.256;18.694;2023-05-16T11:14:12;11.70;99.90
16158;DHT22;8184;60.256;18.694;2023-05-16T11:16:48;11.50;99.90
16158;DHT22;8184;60.256;18.694;2023-05-16T11:19:31;11.40;99.90
16158;DHT22;8184;60.256;18.694;2023-05-16T11:22:12;11.30;99.90
16158;DHT22;8184;60.256;18.694;2023-05-16T11:24:51;11.20;99.90
16158;DHT22;8184;60.256;18.694;2023-05-16T11:27:20;11.10;99.90
16158;DHT22;8184;60.256;18.694;2023-05-16T11:29:49;11.40;99.90
16158;DHT22;8184;60.256;18.694;2023-05-16T11:32:19;11.50;99.90
16158;DHT22;8184;60.256;18.694;2023-05-16T11:34:49;11.60;99.90
16158;DHT22;8184;60.256;18.694;2023-05-16T11:37:18;11.60;99.90
16158;DHT22;8184;60.256;18.694;2023-05-16T11:39:47;11.70;99.90
16158;DHT22;8184;60.256;18.694;2023-05-16T11:42:15;11.60;99.90
16158;DHT22;8184;60.256;18.694;2023-05-16T11:44:43;11.70;99.90
16158;DHT22;8184;60.256;18.694;2023-05-16T11:47:12;11.50;99.90
16158;DHT22;8184;60.256;18.694;2023-05-16T11:49:42;11.50;99.90
16158;DHT22;8184;60.256;18.694;2023-05-16T11:52:11;11.50;99.90
16158;DHT22;8184;60.256;18.694;2023-05-16T11:54:39;11.30;99.90
16158;DHT22;8184;60.256;18.694;2023-05-16T11:57:08;11.10;99.90
16158;DHT22;8184;60.256;18.694;2023-05-16T11:59:37;10.80;99.90
16158;DHT22;8184;60.256;18.694;2023-05-16T12:02:05;10.60;99.90
16158;DHT22;8184;60.256;18.694;2023-05-16T12:04:35;10.90;99.90
16158;DHT22;8184;60.256;18.694;2023-05-16T12:07:07;10.60;99.90
16158;DHT22;8184;60.256;18.694;2023-05-16T12:09:35;10.50;99.90
16158;DHT22;8184;60.256;18.694;2023-05-16T12:12:03;10.40;99.90
16158;DHT22;8184;60.256;18.694;2023-05-16T12:14:32;10.60;99.90
16158;DHT22;8184;60.256;18.694;2023-05-16T12:17:01;10.40;99.90
16158;DHT22;8184;60.256;18.694;2023-05-16T12:19:30;10.30;99.90
16158;DHT22;8184;60.256;18.694;2023-05-16T12:21:58;10.40;99.90
16158;DHT22;8184;60.256;18.694;2023-05-16T12:24:31;10.50;99.90
16158;DHT22;8184;60.256;18.694;2023-05-16T12:27:03;10.30;99.90
16158;DHT22;8184;60.256;18.694;2023-05-16T12:29:31;10.40;99.90
16158;DHT22;8184;60.256;18.694;2023-05-16T12:32:02;10.50;99.90
16158;DHT22;8184;60.256;18.694;2023-05-16T12:34:32;10.50;99.90
16158;DHT22;8184;60.256;18.694;2023-05-16T12:37:01;10.60;99.90
16158;DHT22;8184;60.256;18.694;2023-05-16T12:39:36;10.80;99.90
16158;DHT22;8184;60.256;18.694;2023-05-16T12:42:07;11.00;99.90
16158;DHT22;8184;60.256;18.694;2023-05-16T12:44:36;11.00;99.90
16158;DHT22;8184;60.256;18.694;2023-05-16T12:47:10;11.00;99.90
16158;DHT22;8184;60.256;18.694;2023-05-16T12:49:43;11.20;99.90
16158;DHT22;8184;60.256;18.694;2023-05-16T12:52:16;11.20;99.90
16158;DHT22;8184;60.256;18.694;2023-05-16T12:54:49;11.30;99.90
16158;DHT22;8184;60.256;18.694;2023-05-16T12:57:23;11.40;99.90
16158;DHT22;8184;60.256;18.694;2023-05-16T12:59:52;11.50;99.90
16158;DHT22;8184;60.256;18.694;2023-05-16T13:02:20;11.30;99.90
16158;DHT22;8184;60.256;18.694;2023-05-16T13:04:48;11.30;99.90
16158;DHT22;8184;60.256;18.694;2023-05-16T13:07:17;11.10;99.90
16158;DHT22;8184;60.256;18.694;2023-05-16T13:09:51;10.90;99.90
16158;DHT22;8184;60.256;18.694;2023-05-16T13:12:21;11.10;99.90
16158;DHT22;8184;60.256;18.694;2023-05-16T13:14:53;11.10;99.90
16158;DHT22;8184;60.256;18.694;2023-05-16T13:17:21;11.20;99.90
16158;DHT22;8184;60.256;18.694;2023-05-16T13:19:56;11.10;99.90
16158;DHT22;8184;60.256;18.694;2023-05-16T13:22:24;11.10;99.90
16158;DHT22;8184;60.256;18.694;2023-05-16T13:24:54;11.10;99.90
16158;DHT22;8184;60.256;18.694;2023-05-16T13:27:22;11.10;99.90
16158;DHT22;8184;60.256;18.694;2023-05-16T13:29:57;11.10;99.90
16158;DHT22;8184;60.256;18.694;2023-05-16T13:32:25;11.00;99.90
16158;DHT22;8184;60.256;18.694;2023-05-16T13:34:54;11.10;99.90
16158;DHT22;8184;60.256;18.694;2023-05-16T13:37:22;11.00;99.90
16158;DHT22;8184;60.256;18.694;2023-05-16T13:39:51;11.10;99.90
16158;DHT22;8184;60.256;18.694;2023-05-16T13:42:21;11.10;99.90
16158;DHT22;8184;60.256;18.694;2023-05-16T13:44:53;11.20;99.90
16158;DHT22;8184;60.256;18.694;2023-05-16T13:47:21;11.20;99.90
16158;DHT22;8184;60.256;18.694;2023-05-16T13:49:50;11.20;99.90
16158;DHT22;8184;60.256;18.694;2023-05-16T13:52:18;11.20;99.90
16158;DHT22;8184;60.256;18.694;2023-05-16T13:54:47;11.10;99.90
16158;DHT22;8184;60.256;18.694;2023-05-16T13:57:15;11.00;99.90
16158;DHT22;8184;60.256;18.694;2023-05-16T13:59:45;11.10;99.90
16158;DHT22;8184;60.256;18.694;2023-05-16T14:02:33;11.20;99.90
16158;DHT22;8184;60.256;18.694;2023-05-16T14:05:01;11.00;99.90
16158;DHT22;8184;60.256;18.694;2023-05-16T14:07:30;11.00;99.90
16158;DHT22;8184;60.256;18.694;2023-05-16T14:10:02;11.00;99.90
16158;DHT22;8184;60.256;18.694;2023-05-16T14:12:32;11.00;99.90
16158;DHT22;8184;60.256;18.694;2023-05-16T14:15:05;11.10;99.90
16158;DHT22;8184;60.256;18.694;2023-05-16T14:17:34;11.40;99.90
16158;DHT22;8184;60.256;18.694;2023-05-16T14:20:03;11.70;99.90
16158;DHT22;8184;60.256;18.694;2023-05-16T14:22:34;11.90;99.90
16158;DHT22;8184;60.256;18.694;2023-05-16T14:25:03;12.00;99.90
16158;DHT22;8184;60.256;18.694;2023-05-16T14:27:31;12.00;99.90
16158;DHT22;8184;60.256;18.694;2023-05-16T14:30:00;11.70;99.90
16158;DHT22;8184;60.256;18.694;2023-05-16T14:32:29;11.70;99.90
16158;DHT22;8184;60.256;18.694;2023-05-16T14:34:58;11.60;99.90
16158;DHT22;8184;60.256;18.694;2023-05-16T14:37:26;11.60;99.90
16158;DHT22;8184;60.256;18.694;2023-05-16T14:39:54;11.80;99.90
16158;DHT22;8184;60.256;18.694;2023-05-16T14:42:23;11.70;99.90
16158;DHT22;8184;60.256;18.694;2023-05-16T14:44:51;11.90;99.90
16158;DHT22;8184;60.256;18.694;2023-05-16T14:47:19;12.20;99.90
16158;DHT22;8184;60.256;18.694;2023-05-16T14:49:49;11.90;99.90
16158;DHT22;8184;60.256;18.694;2023-05-16T14:52:21;12.10;99.90
16158;DHT22;8184;60.256;18.694;2023-05-16T14:54:49;12.20;99.90
16158;DHT22;8184;60.256;18.694;2023-05-16T14:57:17;12.10;99.90
16158;DHT22;8184;60.256;18.694;2023-05-16T14:59:46;11.90;99.90
16158;DHT22;8184;60.256;18.694;2023-05-16T15:02:15;12.20;99.90
16158;DHT22;8184;60.256;18.694;2023-05-16T15:04:43;12.30;99.90
16158;DHT22;8184;60.256;18.694;2023-05-16T15:07:13;12.40;99.90
16158;DHT22;8184;60.256;18.694;2023-05-16T15:09:41;12.30;99.90
16158;DHT22;8184;60.256;18.694;2023-05-16T15:12:10;12.40;99.90
16158;DHT22;8184;60.256;18.694;2023-05-16T15:14:38;12.60;99.90
16158;DHT22;8184;60.256;18.694;2023-05-16T15:17:06;12.70;99.90
16158;DHT22;8184;60.256;18.694;2023-05-16T15:19:35;12.80;99.90
16158;DHT22;8184;60.256;18.694;2023-05-16T15:22:03;12.90;99.90
16158;DHT22;8184;60.256;18.694;2023-05-16T15:24:38;12.50;99.90
16158;DHT22;8184;60.256;18.694;2023-05-16T15:27:06;12.20;99.90
16158;DHT22;8184;60.256;18.694;2023-05-16T15:29:34;12.50;99.90
16158;DHT22;8184;60.256;18.694;2023-05-16T15:32:03;12.80;99.90
16158;DHT22;8184;60.256;18.694;2023-05-16T15:34:33;12.80;99.90
16158;DHT22;8184;60.256;18.694;2023-05-16T15:37:02;12.90;99.90
16158;DHT22;8184;60.256;18.694;2023-05-16T15:39:30;12.80;99.90
16158;DHT22;8184;60.256;18.694;2023-05-16T15:42:00;12.70;99.90
16158;DHT22;8184;60.256;18.694;2023-05-16T15:44:37;12.80;99.90
16158;DHT22;8184;60.256;18.694;2023-05-16T15:47:05;12.40;99.90
16158;DHT22;8184;60.256;18.694;2023-05-16T15:49:34;12.60;99.90
16158;DHT22;8184;60.256;18.694;2023-05-16T15:52:02;12.20;99.90
16158;DHT22;8184;60.256;18.694;2023-05-16T15:54:31;12.30;99.90